New Yoshino — JG5527 — position and weather

sailwx.info

Track history (hours):
 
Tides and Currents Weather Stations Pressure Air Temp Water Temp Dewpoint Dewpoint Depression Visibility Wind Speed Wind Dir Waves Ship Positions

New Yoshino

Last reported at 2015-Apr-19 08:33 UTC. Time now 2015-Apr-21 06:34 UTC.
Position N 36°25' E 140°53'.

Length 102 m; draft 6.6 m.

Type: Tanker. MMSI: 431300724.

Date/timePositionNaut miles runAvg speedWind from/ knotsBaromVisibWave heightAir tempDewpointWater temp
2015-Apr-19 08:33N 36°25' E 140°53'1814.0
2015-Apr-19 07:17N 36°08' E 140°46'1013.4
2015-Apr-19 06:33N 35°58' E 140°43'4 0.6
2015-Apr-18 23:12N 35°55' E 140°41'2 3.0
2015-Apr-18 22:33N 35°56' E 140°42'4 1.3
2015-Apr-18 19:29N 35°60' E 140°42'1112.2
2015-Apr-18 18:33N 36°10' E 140°47'1413.9
2015-Apr-18 17:31N 36°24' E 140°53'1614.0
2015-Apr-18 16:21N 36°40' E 140°59'  
2015-Apr-15 01:24N 35°39' E 140°56'1214.3
2015-Apr-15 00:33N 35°30' E 140°47'1914.4
2015-Apr-14 23:14N 35°15' E 140°33'2414.1
2015-Apr-14 21:33N 34°58' E 140°12'1513.8
2015-Apr-14 20:28N 34°50' E 139°57'1112.2
2015-Apr-14 19:33N 34°53' E 139°44'1312.6
2015-Apr-14 18:33N 35°05' E 139°44'1212.0
2015-Apr-14 17:33N 35°17' E 139°45'1110.7
2015-Apr-14 16:33N 35°28' E 139°48'1111.4
2015-Apr-14 15:33N 35°31' E 140°02'1 0.5
2015-Apr-14 14:29N 35°31' E 140°02'0 0.0
2015-Apr-14 13:32N 35°31' E 140°02'0 0.0
2015-Apr-14 12:32N 35°31' E 140°02'0 0.0
2015-Apr-14 11:32N 35°31' E 140°02'0 0.0
2015-Apr-14 10:26N 35°31' E 140°02'0 0.0
2015-Apr-14 09:29N 35°31' E 140°02'0 0.0
2015-Apr-14 08:32N 35°31' E 140°02'2 2.4
2015-Apr-14 07:33N 35°31' E 139°60'0 0.4
2015-Apr-14 06:21N 35°31' E 139°59'0 0.0
2015-Apr-14 05:33N 35°31' E 139°59'0 0.0
2015-Apr-14 04:33N 35°31' E 139°59'0 0.0
2015-Apr-14 03:27N 35°31' E 139°59'0 0.0
2015-Apr-14 02:33N 35°31' E 139°59'0 0.0
2015-Apr-14 01:33N 35°31' E 139°59'0 0.0
2015-Apr-14 00:30N 35°31' E 139°59'1111.8
2015-Apr-13 23:33N 35°25' E 139°48'1110.7
2015-Apr-13 22:33N 35°15' E 139°47'1313.3
2015-Apr-13 21:34N 35°02' E 139°44'19 9.6
2015-Apr-13 19:32N 34°56' E 140°07'2713.4
2015-Apr-13 17:33N 35°13' E 140°32'1313.2
2015-Apr-13 16:33N 35°24' E 140°42'1512.7
2015-Apr-13 15:22N 35°36' E 140°53'2 0.0
2015-Apr-11 23:30N 35°37' E 140°54'1111.5
2015-Apr-11 22:33N 35°28' E 140°46'1211.7
2015-Apr-11 21:30N 35°19' E 140°37'1111.6
2015-Apr-11 20:31N 35°10' E 140°28'1111.4
2015-Apr-11 19:32N 35°02' E 140°19'1211.6
2015-Apr-11 18:32N 34°56' E 140°07'1511.0
2015-Apr-11 17:08N 34°51' E 139°49'711.8
2015-Apr-11 16:33N 34°56' E 139°43'1413.7
2015-Apr-11 15:33N 35°10' E 139°45'1212.2
2015-Apr-11 14:33N 35°22' E 139°42'1312.9
2015-Apr-11 13:33N 35°31' E 139°54'7 6.7
2015-Apr-11 12:31N 35°31' E 140°02'0 0.0
2015-Apr-11 11:28N 35°31' E 140°02'0 0.0
2015-Apr-11 10:31N 35°31' E 140°02'0 0.0
2015-Apr-11 09:28N 35°31' E 140°02'0 0.0
2015-Apr-11 08:19N 35°31' E 140°02'0 0.0
2015-Apr-11 07:31N 35°31' E 140°02'0 0.0
2015-Apr-11 06:31N 35°31' E 140°02'0 0.0
2015-Apr-11 05:28N 35°31' E 140°02'0 0.0
2015-Apr-11 04:28N 35°31' E 140°02'0 0.3
2015-Apr-11 03:33N 35°31' E 140°02'1 1.3
2015-Apr-11 02:33N 35°31' E 140°01'0 0.0
2015-Apr-11 01:33N 35°31' E 140°01'0 0.0
2015-Apr-11 00:33N 35°31' E 140°01'0 0.0
2015-Apr-10 23:33N 35°31' E 140°01'0 0.0
2015-Apr-10 22:27N 35°31' E 140°01'0 0.0
2015-Apr-10 21:33N 35°31' E 140°01'0 0.0
2015-Apr-10 20:27N 35°31' E 140°01'0 0.2
2015-Apr-10 19:33N 35°32' E 140°01'1111.1
2015-Apr-10 18:33N 35°26' E 139°49'1110.6
2015-Apr-10 17:33N 35°16' E 139°47'1212.2
2015-Apr-10 16:33N 35°03' E 139°45'1111.2
2015-Apr-10 15:33N 34°52' E 139°46'1413.4
2015-Apr-10 14:29N 34°55' E 140°03'1414.7
2015-Apr-10 13:32N 35°02' E 140°17'1513.9
2015-Apr-10 12:27N 35°12' E 140°31'1414.0
2015-Apr-10 11:28N 35°23' E 140°41'1313.9
2015-Apr-10 10:32N 35°33' E 140°51'  
Track history (hours):
 
Tides and Currents Weather Stations Pressure Air Temp Water Temp Dewpoint Dewpoint Depression Visibility Wind Speed Wind Dir Waves Ship Positions

New Yoshino

Last reported at 2015-Apr-19 08:33 UTC. Time now 2015-Apr-21 06:34 UTC.
Position N 36°25' E 140°53'.

Length 102 m; draft 6.6 m.

Type: Tanker. MMSI: 431300724.

Date/timePositionNaut miles runAvg speedWind from/ knotsBaromVisibWave heightAir tempDewpointWater temp
2015-Apr-19 08:33N 36°25' E 140°53'1814.0
2015-Apr-19 07:17N 36°08' E 140°46'1013.4
2015-Apr-19 06:33N 35°58' E 140°43'4 0.6
2015-Apr-18 23:12N 35°55' E 140°41'2 3.0
2015-Apr-18 22:33N 35°56' E 140°42'4 1.3
2015-Apr-18 19:29N 35°60' E 140°42'1112.2
2015-Apr-18 18:33N 36°10' E 140°47'1413.9
2015-Apr-18 17:31N 36°24' E 140°53'1614.0
2015-Apr-18 16:21N 36°40' E 140°59'  
2015-Apr-15 01:24N 35°39' E 140°56'1214.3
2015-Apr-15 00:33N 35°30' E 140°47'1914.4
2015-Apr-14 23:14N 35°15' E 140°33'2414.1
2015-Apr-14 21:33N 34°58' E 140°12'1513.8
2015-Apr-14 20:28N 34°50' E 139°57'1112.2
2015-Apr-14 19:33N 34°53' E 139°44'1312.6
2015-Apr-14 18:33N 35°05' E 139°44'1212.0
2015-Apr-14 17:33N 35°17' E 139°45'1110.7
2015-Apr-14 16:33N 35°28' E 139°48'1111.4
2015-Apr-14 15:33N 35°31' E 140°02'1 0.5
2015-Apr-14 14:29N 35°31' E 140°02'0 0.0
2015-Apr-14 13:32N 35°31' E 140°02'0 0.0
2015-Apr-14 12:32N 35°31' E 140°02'0 0.0
2015-Apr-14 11:32N 35°31' E 140°02'0 0.0
2015-Apr-14 10:26N 35°31' E 140°02'0 0.0
2015-Apr-14 09:29N 35°31' E 140°02'0 0.0
2015-Apr-14 08:32N 35°31' E 140°02'2 2.4
2015-Apr-14 07:33N 35°31' E 139°60'0 0.4
2015-Apr-14 06:21N 35°31' E 139°59'0 0.0
2015-Apr-14 05:33N 35°31' E 139°59'0 0.0
2015-Apr-14 04:33N 35°31' E 139°59'0 0.0
2015-Apr-14 03:27N 35°31' E 139°59'0 0.0
2015-Apr-14 02:33N 35°31' E 139°59'0 0.0
2015-Apr-14 01:33N 35°31' E 139°59'0 0.0
2015-Apr-14 00:30N 35°31' E 139°59'1111.8
2015-Apr-13 23:33N 35°25' E 139°48'1110.7
2015-Apr-13 22:33N 35°15' E 139°47'1313.3
2015-Apr-13 21:34N 35°02' E 139°44'19 9.6
2015-Apr-13 19:32N 34°56' E 140°07'2713.4
2015-Apr-13 17:33N 35°13' E 140°32'1313.2
2015-Apr-13 16:33N 35°24' E 140°42'1512.7
2015-Apr-13 15:22N 35°36' E 140°53'2 0.0
2015-Apr-11 23:30N 35°37' E 140°54'1111.5
2015-Apr-11 22:33N 35°28' E 140°46'1211.7
2015-Apr-11 21:30N 35°19' E 140°37'1111.6
2015-Apr-11 20:31N 35°10' E 140°28'1111.4
2015-Apr-11 19:32N 35°02' E 140°19'1211.6
2015-Apr-11 18:32N 34°56' E 140°07'1511.0
2015-Apr-11 17:08N 34°51' E 139°49'711.8
2015-Apr-11 16:33N 34°56' E 139°43'1413.7
2015-Apr-11 15:33N 35°10' E 139°45'1212.2
2015-Apr-11 14:33N 35°22' E 139°42'1312.9
2015-Apr-11 13:33N 35°31' E 139°54'7 6.7
2015-Apr-11 12:31N 35°31' E 140°02'0 0.0
2015-Apr-11 11:28N 35°31' E 140°02'0 0.0
2015-Apr-11 10:31N 35°31' E 140°02'0 0.0
2015-Apr-11 09:28N 35°31' E 140°02'0 0.0
2015-Apr-11 08:19N 35°31' E 140°02'0 0.0
2015-Apr-11 07:31N 35°31' E 140°02'0 0.0
2015-Apr-11 06:31N 35°31' E 140°02'0 0.0
2015-Apr-11 05:28N 35°31' E 140°02'0 0.0
2015-Apr-11 04:28N 35°31' E 140°02'0 0.3
2015-Apr-11 03:33N 35°31' E 140°02'1 1.3
2015-Apr-11 02:33N 35°31' E 140°01'0 0.0
2015-Apr-11 01:33N 35°31' E 140°01'0 0.0
2015-Apr-11 00:33N 35°31' E 140°01'0 0.0
2015-Apr-10 23:33N 35°31' E 140°01'0 0.0
2015-Apr-10 22:27N 35°31' E 140°01'0 0.0
2015-Apr-10 21:33N 35°31' E 140°01'0 0.0
2015-Apr-10 20:27N 35°31' E 140°01'0 0.2
2015-Apr-10 19:33N 35°32' E 140°01'1111.1
2015-Apr-10 18:33N 35°26' E 139°49'1110.6
2015-Apr-10 17:33N 35°16' E 139°47'1212.2
2015-Apr-10 16:33N 35°03' E 139°45'1111.2
2015-Apr-10 15:33N 34°52' E 139°46'1413.4
2015-Apr-10 14:29N 34°55' E 140°03'1414.7
2015-Apr-10 13:32N 35°02' E 140°17'1513.9
2015-Apr-10 12:27N 35°12' E 140°31'1414.0
2015-Apr-10 11:28N 35°23' E 140°41'1313.9
2015-Apr-10 10:32N 35°33' E 140°51'  

Dump ship's entire track history